Flight Briefing for CPX203

Departure Arrival
Miami International Airport (KMIA)
Click to view FAA NOTAMS
Chicago/Rockford International Airport (KRFD)
Click to view FAA NOTAMS
Departure Time Arrival Time
N/A N/A
Aircraft Distance
B767-300BDSF 1139nm
Departure METAR Arrival METAR
KMIA 230553Z 08014G18KT 10SM SCT030 SCT070 27/20 A3009 RMK AO2 SLP190 60001 T02720200 10278 20267 58006 KRFD 230559Z 21005KT 10SM -RA FEW008 SCT020 OVC036 18/18 A2985 RMK AO2 LTG DSNT NE-SE TSE57 OCNL LTGICCC DSNT NE-SE CB DSNT NE-SE MOV NE P0000 T01830178 $
Suggested Route
WINCO2 WINCO J73 LAL CTY J91 ATL VARNM GLAZR Q118 HEVAN Q118 MZZ JOT


View recent IFR Routes data
Notes



Charts and Procedures

Charts for KMIA
No chart available
Charts for KRFD
No chart available

Windy.com Weather Map